Angelica, Pennsylvania
Current Conditions -  °F | °C
As of 3:54 AM on Thursday 27 Nov 2014 (Local Time) from KRDG Reporting Station
Unknown Precip Unknown Precip  
Wind Chill: 31°   Ceiling: 4800
Heat Index: 35°   Visibility: 10mi
Dew Point: 29°   Wind: 5mph
Humidity: 78%   Direction: 280°W
Pressure: 29.97"   Gusts: NA
Location:  40.2411°N, 75.9752°W
Report Text: KRDG 270854Z 28004KT 10SM UP OVC048 02/M02 A2997 RMK AO2 UPB43SNB0756E18 SLP158 P0001 60001 T00171017 53012
Loading
Personal Weather Stations






























Interactive Weather Map New forecast layout! Learn more

10-Day Weather Forecast

Advertisements
Track Severe Weather on mobile